sensor_id;sensor_type;location;lat;lon;timestamp;P1;durP1;ratioP1;P2;durP2;ratioP2
38089;SDS011;23904;52.322;10.232;2022-10-16T00:01:18;3.78;;;1.10;;
38089;SDS011;23904;52.322;10.232;2022-10-16T00:03:47;3.17;;;1.20;;
38089;SDS011;23904;52.322;10.232;2022-10-16T00:06:14;3.50;;;1.13;;
38089;SDS011;23904;52.322;10.232;2022-10-16T00:08:42;3.38;;;1.10;;
38089;SDS011;23904;52.322;10.232;2022-10-16T00:11:09;9.40;;;1.60;;
38089;SDS011;23904;52.322;10.232;2022-10-16T00:13:41;3.03;;;1.27;;
38089;SDS011;23904;52.322;10.232;2022-10-16T00:16:10;3.70;;;1.40;;
38089;SDS011;23904;52.322;10.232;2022-10-16T00:18:37;3.80;;;1.27;;
38089;SDS011;23904;52.322;10.232;2022-10-16T00:21:08;1.98;;;1.27;;
38089;SDS011;23904;52.322;10.232;2022-10-16T00:23:42;2.00;;;1.42;;
38089;SDS011;23904;52.322;10.232;2022-10-16T00:26:10;5.88;;;1.45;;
38089;SDS011;23904;52.322;10.232;2022-10-16T00:28:38;3.75;;;1.27;;
38089;SDS011;23904;52.322;10.232;2022-10-16T00:31:05;4.03;;;1.27;;
38089;SDS011;23904;52.322;10.232;2022-10-16T00:33:33;4.57;;;1.25;;
38089;SDS011;23904;52.322;10.232;2022-10-16T00:36:00;4.85;;;1.23;;
38089;SDS011;23904;52.322;10.232;2022-10-16T00:38:28;3.15;;;1.55;;
38089;SDS011;23904;52.322;10.232;2022-10-16T00:40:54;6.25;;;1.33;;
38089;SDS011;23904;52.322;10.232;2022-10-16T00:46:01;2.53;;;1.40;;
38089;SDS011;23904;52.322;10.232;2022-10-16T00:48:30;7.32;;;1.60;;
38089;SDS011;23904;52.322;10.232;2022-10-16T00:50:56;4.15;;;1.30;;
38089;SDS011;23904;52.322;10.232;2022-10-16T00:53:23;3.40;;;1.00;;
38089;SDS011;23904;52.322;10.232;2022-10-16T00:55:50;2.17;;;1.33;;
38089;SDS011;23904;52.322;10.232;2022-10-16T00:58:16;5.38;;;1.38;;
38089;SDS011;23904;52.322;10.232;2022-10-16T01:00:42;3.47;;;1.40;;
38089;SDS011;23904;52.322;10.232;2022-10-16T01:03:28;8.45;;;1.67;;
38089;SDS011;23904;52.322;10.232;2022-10-16T01:11:38;2.90;;;1.42;;
38089;SDS011;23904;52.322;10.232;2022-10-16T01:14:16;2.78;;;1.70;;
38089;SDS011;23904;52.322;10.232;2022-10-16T01:16:52;7.05;;;2.00;;
38089;SDS011;23904;52.322;10.232;2022-10-16T01:22:08;3.38;;;1.95;;
38089;SDS011;23904;52.322;10.232;2022-10-16T01:24:43;2.90;;;1.92;;
38089;SDS011;23904;52.322;10.232;2022-10-16T01:27:14;5.00;;;1.90;;
38089;SDS011;23904;52.322;10.232;2022-10-16T01:30:30;2.63;;;1.50;;
38089;SDS011;23904;52.322;10.232;2022-10-16T01:32:42;5.63;;;1.90;;
38089;SDS011;23904;52.322;10.232;2022-10-16T01:36:02;3.28;;;1.65;;
38089;SDS011;23904;52.322;10.232;2022-10-16T01:38:18;2.70;;;1.70;;
38089;SDS011;23904;52.322;10.232;2022-10-16T01:40:56;5.50;;;1.63;;
38089;SDS011;23904;52.322;10.232;2022-10-16T01:43:28;2.70;;;1.67;;
38089;SDS011;23904;52.322;10.232;2022-10-16T01:46:01;2.38;;;1.77;;
38089;SDS011;23904;52.322;10.232;2022-10-16T01:48:27;2.67;;;1.80;;
38089;SDS011;23904;52.322;10.232;2022-10-16T01:51:05;2.92;;;1.70;;
38089;SDS011;23904;52.322;10.232;2022-10-16T01:53:34;5.28;;;1.90;;
38089;SDS011;23904;52.322;10.232;2022-10-16T01:56:00;3.97;;;1.88;;
38089;SDS011;23904;52.322;10.232;2022-10-16T01:58:30;4.10;;;1.90;;
38089;SDS011;23904;52.322;10.232;2022-10-16T02:00:59;3.78;;;2.10;;
38089;SDS011;23904;52.322;10.232;2022-10-16T02:03:28;2.78;;;1.75;;
38089;SDS011;23904;52.322;10.232;2022-10-16T02:05:55;4.53;;;2.00;;
38089;SDS011;23904;52.322;10.232;2022-10-16T02:08:23;3.47;;;2.38;;
38089;SDS011;23904;52.322;10.232;2022-10-16T02:10:53;3.90;;;1.60;;
38089;SDS011;23904;52.322;10.232;2022-10-16T02:15:57;3.53;;;2.38;;
38089;SDS011;23904;52.322;10.232;2022-10-16T02:18:23;4.10;;;2.03;;
38089;SDS011;23904;52.322;10.232;2022-10-16T02:26:22;3.63;;;1.98;;
38089;SDS011;23904;52.322;10.232;2022-10-16T02:29:13;3.88;;;1.77;;
38089;SDS011;23904;52.322;10.232;2022-10-16T02:31:45;6.55;;;2.20;;
38089;SDS011;23904;52.322;10.232;2022-10-16T02:34:16;6.55;;;2.15;;
38089;SDS011;23904;52.322;10.232;2022-10-16T02:36:43;4.50;;;2.80;;
38089;SDS011;23904;52.322;10.232;2022-10-16T02:39:11;5.68;;;2.13;;
38089;SDS011;23904;52.322;10.232;2022-10-16T02:41:37;5.70;;;2.58;;
38089;SDS011;23904;52.322;10.232;2022-10-16T02:44:03;8.68;;;2.17;;
38089;SDS011;23904;52.322;10.232;2022-10-16T02:46:28;7.25;;;3.30;;
38089;SDS011;23904;52.322;10.232;2022-10-16T02:48:54;6.43;;;2.58;;
38089;SDS011;23904;52.322;10.232;2022-10-16T02:51:21;4.15;;;2.13;;
38089;SDS011;23904;52.322;10.232;2022-10-16T02:53:46;5.93;;;2.15;;
38089;SDS011;23904;52.322;10.232;2022-10-16T02:56:12;6.28;;;2.20;;
38089;SDS011;23904;52.322;10.232;2022-10-16T02:58:38;3.08;;;1.90;;
38089;SDS011;23904;52.322;10.232;2022-10-16T03:01:03;3.15;;;2.28;;
38089;SDS011;23904;52.322;10.232;2022-10-16T03:03:29;5.03;;;2.10;;
38089;SDS011;23904;52.322;10.232;2022-10-16T03:05:54;4.03;;;2.00;;
38089;SDS011;23904;52.322;10.232;2022-10-16T03:08:20;2.88;;;1.88;;
38089;SDS011;23904;52.322;10.232;2022-10-16T03:10:48;4.15;;;2.20;;
38089;SDS011;23904;52.322;10.232;2022-10-16T03:13:15;3.80;;;2.00;;
38089;SDS011;23904;52.322;10.232;2022-10-16T03:15:40;4.53;;;2.15;;
38089;SDS011;23904;52.322;10.232;2022-10-16T03:18:06;5.15;;;2.00;;
38089;SDS011;23904;52.322;10.232;2022-10-16T03:20:32;8.07;;;2.17;;
38089;SDS011;23904;52.322;10.232;2022-10-16T03:22:58;3.78;;;2.40;;
38089;SDS011;23904;52.322;10.232;2022-10-16T03:25:23;6.97;;;2.15;;
38089;SDS011;23904;52.322;10.232;2022-10-16T03:27:49;8.35;;;2.08;;
38089;SDS011;23904;52.322;10.232;2022-10-16T03:30:15;4.10;;;2.00;;
38089;SDS011;23904;52.322;10.232;2022-10-16T03:32:44;4.50;;;2.10;;
38089;SDS011;23904;52.322;10.232;2022-10-16T03:35:10;7.07;;;1.98;;
38089;SDS011;23904;52.322;10.232;2022-10-16T03:37:35;4.60;;;2.55;;
38089;SDS011;23904;52.322;10.232;2022-10-16T03:40:01;4.50;;;2.10;;
38089;SDS011;23904;52.322;10.232;2022-10-16T03:42:28;4.50;;;1.85;;
38089;SDS011;23904;52.322;10.232;2022-10-16T03:44:54;3.30;;;1.85;;
38089;SDS011;23904;52.322;10.232;2022-10-16T03:47:20;4.88;;;2.10;;
38089;SDS011;23904;52.322;10.232;2022-10-16T03:49:48;5.00;;;1.90;;
38089;SDS011;23904;52.322;10.232;2022-10-16T03:52:14;6.03;;;2.65;;
38089;SDS011;23904;52.322;10.232;2022-10-16T03:54:40;8.32;;;2.13;;
38089;SDS011;23904;52.322;10.232;2022-10-16T03:57:05;6.00;;;2.55;;
38089;SDS011;23904;52.322;10.232;2022-10-16T03:59:31;8.90;;;2.33;;
38089;SDS011;23904;52.322;10.232;2022-10-16T04:01:56;4.60;;;2.30;;
38089;SDS011;23904;52.322;10.232;2022-10-16T04:04:22;3.92;;;2.03;;
38089;SDS011;23904;52.322;10.232;2022-10-16T04:06:49;4.82;;;2.42;;
38089;SDS011;23904;52.322;10.232;2022-10-16T04:09:15;4.15;;;2.38;;
38089;SDS011;23904;52.322;10.232;2022-10-16T04:11:41;4.60;;;2.33;;
38089;SDS011;23904;52.322;10.232;2022-10-16T04:14:07;4.47;;;2.75;;
38089;SDS011;23904;52.322;10.232;2022-10-16T04:16:33;4.10;;;2.55;;
38089;SDS011;23904;52.322;10.232;2022-10-16T04:18:58;4.80;;;2.10;;
38089;SDS011;23904;52.322;10.232;2022-10-16T04:21:24;6.72;;;2.40;;
38089;SDS011;23904;52.322;10.232;2022-10-16T04:23:49;4.40;;;2.40;;
38089;SDS011;23904;52.322;10.232;2022-10-16T04:26:15;3.67;;;2.30;;
38089;SDS011;23904;52.322;10.232;2022-10-16T04:28:41;4.15;;;2.20;;
38089;SDS011;23904;52.322;10.232;2022-10-16T04:31:06;4.90;;;2.92;;
38089;SDS011;23904;52.322;10.232;2022-10-16T04:33:32;6.15;;;2.92;;
38089;SDS011;23904;52.322;10.232;2022-10-16T04:35:59;4.22;;;2.65;;
38089;SDS011;23904;52.322;10.232;2022-10-16T04:38:27;4.88;;;2.05;;
38089;SDS011;23904;52.322;10.232;2022-10-16T04:40:54;2.97;;;2.35;;
38089;SDS011;23904;52.322;10.232;2022-10-16T04:43:20;5.05;;;2.70;;
38089;SDS011;23904;52.322;10.232;2022-10-16T04:45:47;9.68;;;2.63;;
38089;SDS011;23904;52.322;10.232;2022-10-16T04:48:13;7.90;;;3.05;;
38089;SDS011;23904;52.322;10.232;2022-10-16T04:50:38;9.38;;;2.40;;
38089;SDS011;23904;52.322;10.232;2022-10-16T04:53:04;4.47;;;2.05;;
38089;SDS011;23904;52.322;10.232;2022-10-16T04:55:32;5.22;;;1.95;;
38089;SDS011;23904;52.322;10.232;2022-10-16T04:57:57;7.60;;;3.05;;
38089;SDS011;23904;52.322;10.232;2022-10-16T05:00:23;5.05;;;2.83;;
38089;SDS011;23904;52.322;10.232;2022-10-16T05:02:51;9.88;;;2.55;;
38089;SDS011;23904;52.322;10.232;2022-10-16T05:05:18;4.30;;;2.65;;
38089;SDS011;23904;52.322;10.232;2022-10-16T05:07:47;7.85;;;2.80;;
38089;SDS011;23904;52.322;10.232;2022-10-16T05:10:14;4.53;;;2.60;;
38089;SDS011;23904;52.322;10.232;2022-10-16T05:12:40;5.20;;;3.13;;
38089;SDS011;23904;52.322;10.232;2022-10-16T05:15:05;5.15;;;3.38;;
38089;SDS011;23904;52.322;10.232;2022-10-16T05:17:32;7.20;;;3.22;;
38089;SDS011;23904;52.322;10.232;2022-10-16T05:19:57;7.95;;;3.20;;
38089;SDS011;23904;52.322;10.232;2022-10-16T05:22:23;6.00;;;3.35;;
38089;SDS011;23904;52.322;10.232;2022-10-16T05:24:48;5.68;;;2.78;;
38089;SDS011;23904;52.322;10.232;2022-10-16T05:27:14;5.60;;;3.60;;
38089;SDS011;23904;52.322;10.232;2022-10-16T05:29:47;7.53;;;3.45;;
38089;SDS011;23904;52.322;10.232;2022-10-16T05:32:14;5.47;;;3.00;;
38089;SDS011;23904;52.322;10.232;2022-10-16T05:34:40;5.60;;;3.20;;
38089;SDS011;23904;52.322;10.232;2022-10-16T05:37:06;6.05;;;2.92;;
38089;SDS011;23904;52.322;10.232;2022-10-16T05:39:32;10.05;;;3.35;;
38089;SDS011;23904;52.322;10.232;2022-10-16T05:41:57;7.00;;;3.47;;
38089;SDS011;23904;52.322;10.232;2022-10-16T05:44:23;4.45;;;2.95;;
38089;SDS011;23904;52.322;10.232;2022-10-16T05:46:49;7.85;;;2.67;;
38089;SDS011;23904;52.322;10.232;2022-10-16T05:49:14;4.93;;;3.35;;
38089;SDS011;23904;52.322;10.232;2022-10-16T05:51:40;4.18;;;2.85;;
38089;SDS011;23904;52.322;10.232;2022-10-16T05:54:06;4.65;;;3.88;;
38089;SDS011;23904;52.322;10.232;2022-10-16T05:56:34;9.70;;;3.50;;
38089;SDS011;23904;52.322;10.232;2022-10-16T05:59:00;4.63;;;3.10;;
38089;SDS011;23904;52.322;10.232;2022-10-16T06:01:25;4.68;;;3.53;;
38089;SDS011;23904;52.322;10.232;2022-10-16T06:03:51;7.55;;;3.42;;
38089;SDS011;23904;52.322;10.232;2022-10-16T06:06:21;13.82;;;4.07;;
38089;SDS011;23904;52.322;10.232;2022-10-16T06:08:53;6.05;;;3.47;;
38089;SDS011;23904;52.322;10.232;2022-10-16T06:11:22;4.20;;;3.20;;
38089;SDS011;23904;52.322;10.232;2022-10-16T06:13:54;6.80;;;3.70;;
38089;SDS011;23904;52.322;10.232;2022-10-16T06:16:22;6.72;;;3.33;;
38089;SDS011;23904;52.322;10.232;2022-10-16T06:18:50;5.07;;;3.20;;
38089;SDS011;23904;52.322;10.232;2022-10-16T06:21:18;8.02;;;3.20;;
38089;SDS011;23904;52.322;10.232;2022-10-16T06:23:46;8.98;;;4.15;;
38089;SDS011;23904;52.322;10.232;2022-10-16T06:26:14;5.05;;;3.67;;
38089;SDS011;23904;52.322;10.232;2022-10-16T06:28:43;6.47;;;2.78;;
38089;SDS011;23904;52.322;10.232;2022-10-16T06:31:09;7.88;;;3.63;;
38089;SDS011;23904;52.322;10.232;2022-10-16T06:33:36;5.88;;;3.30;;
38089;SDS011;23904;52.322;10.232;2022-10-16T06:36:08;5.95;;;3.05;;
38089;SDS011;23904;52.322;10.232;2022-10-16T06:38:37;7.78;;;2.97;;
38089;SDS011;23904;52.322;10.232;2022-10-16T06:41:04;6.60;;;3.45;;
38089;SDS011;23904;52.322;10.232;2022-10-16T06:43:31;5.90;;;3.38;;
38089;SDS011;23904;52.322;10.232;2022-10-16T06:46:00;5.28;;;2.90;;
38089;SDS011;23904;52.322;10.232;2022-10-16T06:48:27;7.60;;;2.97;;
38089;SDS011;23904;52.322;10.232;2022-10-16T06:51:01;5.07;;;2.90;;
38089;SDS011;23904;52.322;10.232;2022-10-16T06:53:29;5.95;;;3.05;;
38089;SDS011;23904;52.322;10.232;2022-10-16T06:56:09;6.68;;;3.35;;
38089;SDS011;23904;52.322;10.232;2022-10-16T06:58:40;5.40;;;2.72;;
38089;SDS011;23904;52.322;10.232;2022-10-16T07:01:07;3.75;;;2.92;;
38089;SDS011;23904;52.322;10.232;2022-10-16T07:03:33;5.30;;;3.22;;
38089;SDS011;23904;52.322;10.232;2022-10-16T07:06:03;5.28;;;2.92;;
38089;SDS011;23904;52.322;10.232;2022-10-16T07:08:31;4.07;;;2.92;;
38089;SDS011;23904;52.322;10.232;2022-10-16T07:11:03;5.45;;;3.35;;
38089;SDS011;23904;52.322;10.232;2022-10-16T07:13:38;5.53;;;3.10;;
38089;SDS011;23904;52.322;10.232;2022-10-16T07:16:06;4.00;;;2.88;;
38089;SDS011;23904;52.322;10.232;2022-10-16T07:18:35;6.47;;;3.10;;
38089;SDS011;23904;52.322;10.232;2022-10-16T07:21:09;3.70;;;2.58;;
38089;SDS011;23904;52.322;10.232;2022-10-16T07:23:37;6.38;;;2.95;;
38089;SDS011;23904;52.322;10.232;2022-10-16T07:26:03;5.25;;;2.33;;
38089;SDS011;23904;52.322;10.232;2022-10-16T07:28:31;4.00;;;2.28;;
38089;SDS011;23904;52.322;10.232;2022-10-16T07:31:04;6.47;;;2.65;;
38089;SDS011;23904;52.322;10.232;2022-10-16T07:33:36;3.40;;;2.03;;
38089;SDS011;23904;52.322;10.232;2022-10-16T07:36:03;4.32;;;1.95;;
38089;SDS011;23904;52.322;10.232;2022-10-16T07:38:30;3.10;;;2.20;;
38089;SDS011;23904;52.322;10.232;2022-10-16T07:41:00;5.43;;;1.95;;
38089;SDS011;23904;52.322;10.232;2022-10-16T07:43:38;4.60;;;1.42;;
38089;SDS011;23904;52.322;10.232;2022-10-16T07:46:05;4.45;;;1.70;;
38089;SDS011;23904;52.322;10.232;2022-10-16T07:48:31;4.45;;;1.92;;
38089;SDS011;23904;52.322;10.232;2022-10-16T07:50:59;3.05;;;1.55;;
38089;SDS011;23904;52.322;10.232;2022-10-16T07:53:28;5.05;;;1.35;;
38089;SDS011;23904;52.322;10.232;2022-10-16T07:56:04;4.18;;;1.73;;
38089;SDS011;23904;52.322;10.232;2022-10-16T07:58:32;3.55;;;1.65;;
38089;SDS011;23904;52.322;10.232;2022-10-16T08:01:02;4.93;;;1.60;;
38089;SDS011;23904;52.322;10.232;2022-10-16T08:03:30;3.95;;;1.50;;
38089;SDS011;23904;52.322;10.232;2022-10-16T08:05:56;6.95;;;1.48;;
38089;SDS011;23904;52.322;10.232;2022-10-16T08:08:23;6.13;;;2.25;;
38089;SDS011;23904;52.322;10.232;2022-10-16T08:10:49;3.85;;;1.33;;
38089;SDS011;23904;52.322;10.232;2022-10-16T08:13:14;2.50;;;1.00;;
38089;SDS011;23904;52.322;10.232;2022-10-16T08:15:41;4.00;;;0.80;;
38089;SDS011;23904;52.322;10.232;2022-10-16T08:18:08;2.88;;;1.23;;
38089;SDS011;23904;52.322;10.232;2022-10-16T08:20:35;10.73;;;2.03;;
38089;SDS011;23904;52.322;10.232;2022-10-16T08:23:01;3.28;;;0.95;;
38089;SDS011;23904;52.322;10.232;2022-10-16T08:25:28;2.30;;;1.20;;
38089;SDS011;23904;52.322;10.232;2022-10-16T08:27:54;4.40;;;1.10;;
38089;SDS011;23904;52.322;10.232;2022-10-16T08:30:20;1.27;;;1.00;;
38089;SDS011;23904;52.322;10.232;2022-10-16T08:32:48;2.58;;;1.20;;
38089;SDS011;23904;52.322;10.232;2022-10-16T08:35:14;4.70;;;1.00;;
38089;SDS011;23904;52.322;10.232;2022-10-16T08:37:41;4.43;;;0.98;;
38089;SDS011;23904;52.322;10.232;2022-10-16T08:40:11;4.20;;;1.08;;
38089;SDS011;23904;52.322;10.232;2022-10-16T08:48:46;6.45;;;0.90;;
38089;SDS011;23904;52.322;10.232;2022-10-16T08:51:38;4.25;;;0.80;;
38089;SDS011;23904;52.322;10.232;2022-10-16T08:54:03;3.83;;;0.82;;
38089;SDS011;23904;52.322;10.232;2022-10-16T08:56:36;4.22;;;1.00;;
38089;SDS011;23904;52.322;10.232;2022-10-16T08:59:01;2.95;;;0.60;;
38089;SDS011;23904;52.322;10.232;2022-10-16T09:01:37;5.15;;;0.88;;
38089;SDS011;23904;52.322;10.232;2022-10-16T09:18:18;4.72;;;1.00;;
38089;SDS011;23904;52.322;10.232;2022-10-16T09:23:38;4.43;;;0.70;;
38089;SDS011;23904;52.322;10.232;2022-10-16T09:26:04;0.90;;;0.55;;
38089;SDS011;23904;52.322;10.232;2022-10-16T09:28:35;1.80;;;0.88;;
38089;SDS011;23904;52.322;10.232;2022-10-16T09:31:01;2.85;;;0.60;;
38089;SDS011;23904;52.322;10.232;2022-10-16T09:33:34;2.58;;;0.60;;
38089;SDS011;23904;52.322;10.232;2022-10-16T09:36:04;5.85;;;0.82;;
38089;SDS011;23904;52.322;10.232;2022-10-16T09:38:34;2.05;;;0.80;;
38089;SDS011;23904;52.322;10.232;2022-10-16T09:43:48;5.38;;;1.05;;
38089;SDS011;23904;52.322;10.232;2022-10-16T09:46:30;3.78;;;0.85;;
38089;SDS011;23904;52.322;10.232;2022-10-16T09:49:05;4.22;;;0.73;;
38089;SDS011;23904;52.322;10.232;2022-10-16T09:51:45;5.68;;;0.60;;
38089;SDS011;23904;52.322;10.232;2022-10-16T09:54:13;2.38;;;0.50;;
38089;SDS011;23904;52.322;10.232;2022-10-16T09:56:44;3.45;;;1.23;;
38089;SDS011;23904;52.322;10.232;2022-10-16T09:59:15;4.95;;;0.50;;
38089;SDS011;23904;52.322;10.232;2022-10-16T10:01:49;1.52;;;0.50;;
38089;SDS011;23904;52.322;10.232;2022-10-16T10:04:21;3.95;;;0.43;;
38089;SDS011;23904;52.322;10.232;2022-10-16T10:06:50;2.38;;;0.43;;
38089;SDS011;23904;52.322;10.232;2022-10-16T10:11:56;2.45;;;0.70;;
38089;SDS011;23904;52.322;10.232;2022-10-16T10:14:23;3.22;;;0.47;;
38089;SDS011;23904;52.322;10.232;2022-10-16T10:17:02;2.20;;;0.50;;
38089;SDS011;23904;52.322;10.232;2022-10-16T10:19:37;3.60;;;0.93;;
38089;SDS011;23904;52.322;10.232;2022-10-16T10:22:26;3.30;;;0.75;;
38089;SDS011;23904;52.322;10.232;2022-10-16T10:27:39;2.05;;;0.60;;
38089;SDS011;23904;52.322;10.232;2022-10-16T10:30:36;2.50;;;0.75;;
38089;SDS011;23904;52.322;10.232;2022-10-16T10:47:42;4.55;;;0.70;;
38089;SDS011;23904;52.322;10.232;2022-10-16T10:53:08;5.18;;;0.60;;
38089;SDS011;23904;52.322;10.232;2022-10-16T10:55:57;4.43;;;1.02;;
38089;SDS011;23904;52.322;10.232;2022-10-16T11:04:49;3.17;;;0.70;;
38089;SDS011;23904;52.322;10.232;2022-10-16T11:07:17;6.97;;;0.73;;
38089;SDS011;23904;52.322;10.232;2022-10-16T11:09:53;3.17;;;0.85;;
38089;SDS011;23904;52.322;10.232;2022-10-16T11:12:36;5.53;;;0.73;;
38089;SDS011;23904;52.322;10.232;2022-10-16T11:15:15;4.70;;;0.60;;
38089;SDS011;23904;52.322;10.232;2022-10-16T11:17:51;1.73;;;0.52;;
38089;SDS011;23904;52.322;10.232;2022-10-16T11:20:40;2.30;;;0.77;;
38089;SDS011;23904;52.322;10.232;2022-10-16T11:23:30;6.65;;;0.70;;
38089;SDS011;23904;52.322;10.232;2022-10-16T11:26:02;1.45;;;0.38;;
38089;SDS011;23904;52.322;10.232;2022-10-16T11:28:42;4.18;;;1.13;;
38089;SDS011;23904;52.322;10.232;2022-10-16T11:31:36;1.70;;;0.70;;
38089;SDS011;23904;52.322;10.232;2022-10-16T11:34:15;4.15;;;0.63;;
38089;SDS011;23904;52.322;10.232;2022-10-16T11:42:02;3.25;;;0.70;;
38089;SDS011;23904;52.322;10.232;2022-10-16T11:47:54;2.55;;;0.95;;
38089;SDS011;23904;52.322;10.232;2022-10-16T11:50:31;1.63;;;0.50;;
38089;SDS011;23904;52.322;10.232;2022-10-16T11:56:24;2.10;;;0.40;;
38089;SDS011;23904;52.322;10.232;2022-10-16T11:59:01;6.80;;;0.95;;
38089;SDS011;23904;52.322;10.232;2022-10-16T12:01:49;17.48;;;1.08;;
38089;SDS011;23904;52.322;10.232;2022-10-16T12:07:05;4.18;;;0.70;;
38089;SDS011;23904;52.322;10.232;2022-10-16T12:09:39;4.00;;;0.60;;
38089;SDS011;23904;52.322;10.232;2022-10-16T12:17:53;3.17;;;0.60;;
38089;SDS011;23904;52.322;10.232;2022-10-16T12:22:49;3.25;;;0.50;;
38089;SDS011;23904;52.322;10.232;2022-10-16T12:25:26;2.25;;;0.50;;
38089;SDS011;23904;52.322;10.232;2022-10-16T12:28:39;3.25;;;0.60;;
38089;SDS011;23904;52.322;10.232;2022-10-16T12:30:40;2.15;;;0.60;;
38089;SDS011;23904;52.322;10.232;2022-10-16T12:33:24;2.42;;;0.70;;
38089;SDS011;23904;52.322;10.232;2022-10-16T12:35:56;2.50;;;0.50;;
38089;SDS011;23904;52.322;10.232;2022-10-16T12:38:29;1.77;;;0.50;;
38089;SDS011;23904;52.322;10.232;2022-10-16T12:41:31;2.40;;;0.40;;
38089;SDS011;23904;52.322;10.232;2022-10-16T12:44:00;2.00;;;0.55;;
38089;SDS011;23904;52.322;10.232;2022-10-16T12:51:39;2.58;;;0.40;;
38089;SDS011;23904;52.322;10.232;2022-10-16T12:54:12;6.93;;;1.00;;
38089;SDS011;23904;52.322;10.232;2022-10-16T13:02:03;1.70;;;0.47;;
38089;SDS011;23904;52.322;10.232;2022-10-16T13:17:11;5.57;;;0.70;;
38089;SDS011;23904;52.322;10.232;2022-10-16T13:28:12;4.97;;;1.00;;
38089;SDS011;23904;52.322;10.232;2022-10-16T13:30:39;3.70;;;0.50;;
38089;SDS011;23904;52.322;10.232;2022-10-16T13:33:18;3.53;;;0.40;;
38089;SDS011;23904;52.322;10.232;2022-10-16T13:35:52;4.38;;;0.50;;
38089;SDS011;23904;52.322;10.232;2022-10-16T13:38:22;3.55;;;0.90;;
38089;SDS011;23904;52.322;10.232;2022-10-16T13:43:18;3.33;;;0.30;;
38089;SDS011;23904;52.322;10.232;2022-10-16T13:46:04;2.75;;;0.45;;
38089;SDS011;23904;52.322;10.232;2022-10-16T13:49:00;4.38;;;0.90;;
38089;SDS011;23904;52.322;10.232;2022-10-16T13:51:36;6.07;;;1.10;;
38089;SDS011;23904;52.322;10.232;2022-10-16T13:54:02;5.32;;;0.55;;
38089;SDS011;23904;52.322;10.232;2022-10-16T13:56:29;6.75;;;0.55;;
38089;SDS011;23904;52.322;10.232;2022-10-16T13:59:20;2.10;;;0.32;;
38089;SDS011;23904;52.322;10.232;2022-10-16T14:01:53;4.43;;;0.57;;
38089;SDS011;23904;52.322;10.232;2022-10-16T14:04:21;2.58;;;0.40;;
38089;SDS011;23904;52.322;10.232;2022-10-16T14:06:49;5.43;;;0.50;;
38089;SDS011;23904;52.322;10.232;2022-10-16T14:09:21;1.35;;;0.47;;
38089;SDS011;23904;52.322;10.232;2022-10-16T14:11:54;1.52;;;0.60;;
38089;SDS011;23904;52.322;10.232;2022-10-16T14:14:25;3.08;;;1.10;;
38089;SDS011;23904;52.322;10.232;2022-10-16T14:19:25;3.20;;;0.40;;
38089;SDS011;23904;52.322;10.232;2022-10-16T14:21:53;3.50;;;0.50;;
38089;SDS011;23904;52.322;10.232;2022-10-16T14:24:24;1.13;;;0.35;;
38089;SDS011;23904;52.322;10.232;2022-10-16T14:26:56;4.28;;;0.55;;
38089;SDS011;23904;52.322;10.232;2022-10-16T14:29:23;2.58;;;0.55;;
38089;SDS011;23904;52.322;10.232;2022-10-16T14:31:57;2.63;;;0.60;;
38089;SDS011;23904;52.322;10.232;2022-10-16T14:34:25;3.10;;;0.35;;
38089;SDS011;23904;52.322;10.232;2022-10-16T14:37:06;3.60;;;0.50;;
38089;SDS011;23904;52.322;10.232;2022-10-16T14:39:50;4.93;;;1.05;;
38089;SDS011;23904;52.322;10.232;2022-10-16T14:42:18;3.33;;;1.00;;
38089;SDS011;23904;52.322;10.232;2022-10-16T14:44:48;4.03;;;0.30;;
38089;SDS011;23904;52.322;10.232;2022-10-16T14:47:18;6.25;;;0.65;;
38089;SDS011;23904;52.322;10.232;2022-10-16T14:49:51;2.95;;;1.08;;
38089;SDS011;23904;52.322;10.232;2022-10-16T14:52:20;1.83;;;0.52;;
38089;SDS011;23904;52.322;10.232;2022-10-16T14:54:49;2.88;;;0.60;;
38089;SDS011;23904;52.322;10.232;2022-10-16T14:57:19;2.15;;;0.73;;
38089;SDS011;23904;52.322;10.232;2022-10-16T14:59:48;1.17;;;0.30;;
38089;SDS011;23904;52.322;10.232;2022-10-16T15:02:28;1.00;;;0.40;;
38089;SDS011;23904;52.322;10.232;2022-10-16T15:05:04;2.03;;;0.40;;
38089;SDS011;23904;52.322;10.232;2022-10-16T15:07:52;3.50;;;0.80;;
38089;SDS011;23904;52.322;10.232;2022-10-16T15:10:20;5.45;;;0.85;;
38089;SDS011;23904;52.322;10.232;2022-10-16T15:12:47;4.65;;;0.80;;
38089;SDS011;23904;52.322;10.232;2022-10-16T15:17:52;2.95;;;0.70;;
38089;SDS011;23904;52.322;10.232;2022-10-16T15:20:23;4.50;;;0.52;;
38089;SDS011;23904;52.322;10.232;2022-10-16T15:22:49;1.30;;;0.50;;
38089;SDS011;23904;52.322;10.232;2022-10-16T15:27:56;4.97;;;1.20;;
38089;SDS011;23904;52.322;10.232;2022-10-16T15:30:23;2.10;;;0.77;;
38089;SDS011;23904;52.322;10.232;2022-10-16T15:32:49;3.13;;;0.80;;
38089;SDS011;23904;52.322;10.232;2022-10-16T15:35:15;2.17;;;0.60;;
38089;SDS011;23904;52.322;10.232;2022-10-16T15:37:40;4.68;;;1.10;;
38089;SDS011;23904;52.322;10.232;2022-10-16T15:40:06;1.85;;;0.82;;
38089;SDS011;23904;52.322;10.232;2022-10-16T15:42:35;2.70;;;1.00;;
38089;SDS011;23904;52.322;10.232;2022-10-16T15:45:01;1.73;;;0.50;;
38089;SDS011;23904;52.322;10.232;2022-10-16T15:47:28;2.38;;;0.77;;
38089;SDS011;23904;52.322;10.232;2022-10-16T15:49:54;2.08;;;0.63;;
38089;SDS011;23904;52.322;10.232;2022-10-16T15:52:20;2.15;;;0.65;;
38089;SDS011;23904;52.322;10.232;2022-10-16T15:54:45;2.38;;;0.85;;
38089;SDS011;23904;52.322;10.232;2022-10-16T15:57:11;4.60;;;0.70;;
38089;SDS011;23904;52.322;10.232;2022-10-16T15:59:37;2.55;;;0.75;;
38089;SDS011;23904;52.322;10.232;2022-10-16T16:02:02;2.33;;;0.70;;
38089;SDS011;23904;52.322;10.232;2022-10-16T16:04:31;2.50;;;0.52;;
38089;SDS011;23904;52.322;10.232;2022-10-16T16:06:57;1.73;;;0.82;;
38089;SDS011;23904;52.322;10.232;2022-10-16T16:09:22;2.63;;;0.80;;
38089;SDS011;23904;52.322;10.232;2022-10-16T16:11:48;3.00;;;1.05;;
38089;SDS011;23904;52.322;10.232;2022-10-16T16:14:16;4.82;;;1.20;;
38089;SDS011;23904;52.322;10.232;2022-10-16T16:16:41;2.78;;;0.98;;
38089;SDS011;23904;52.322;10.232;2022-10-16T16:19:07;4.13;;;1.27;;
38089;SDS011;23904;52.322;10.232;2022-10-16T16:21:34;1.33;;;0.70;;
38089;SDS011;23904;52.322;10.232;2022-10-16T16:24:00;4.03;;;1.20;;
38089;SDS011;23904;52.322;10.232;2022-10-16T16:26:32;2.60;;;1.30;;
38089;SDS011;23904;52.322;10.232;2022-10-16T16:29:01;3.67;;;1.02;;
38089;SDS011;23904;52.322;10.232;2022-10-16T16:31:28;2.85;;;0.90;;
38089;SDS011;23904;52.322;10.232;2022-10-16T16:33:56;3.35;;;1.05;;
38089;SDS011;23904;52.322;10.232;2022-10-16T16:36:23;2.28;;;1.10;;
38089;SDS011;23904;52.322;10.232;2022-10-16T16:38:50;4.10;;;1.17;;
38089;SDS011;23904;52.322;10.232;2022-10-16T16:41:20;3.83;;;1.13;;
38089;SDS011;23904;52.322;10.232;2022-10-16T16:43:50;5.45;;;1.25;;
38089;SDS011;23904;52.322;10.232;2022-10-16T16:46:16;7.65;;;1.70;;
38089;SDS011;23904;52.322;10.232;2022-10-16T16:48:43;2.08;;;0.80;;
38089;SDS011;23904;52.322;10.232;2022-10-16T16:51:10;4.18;;;1.10;;
38089;SDS011;23904;52.322;10.232;2022-10-16T16:53:43;2.53;;;1.40;;
38089;SDS011;23904;52.322;10.232;2022-10-16T16:56:12;4.70;;;1.42;;
38089;SDS011;23904;52.322;10.232;2022-10-16T16:58:38;7.85;;;1.65;;
38089;SDS011;23904;52.322;10.232;2022-10-16T17:01:04;5.35;;;1.60;;
38089;SDS011;23904;52.322;10.232;2022-10-16T17:03:31;3.17;;;1.30;;
38089;SDS011;23904;52.322;10.232;2022-10-16T17:06:00;2.78;;;1.50;;
38089;SDS011;23904;52.322;10.232;2022-10-16T17:08:31;3.20;;;1.40;;